Terminal Aerodrome Forecast
Issued by NWS

Home | Current Version | Previous Version | Text Only | Print | Product List | Glossary On
Versions: 1 2 3 4 5 6 7 8 9 10 11 12 13 14
185
FTUS45 KREV 201120
TAFMMH
TAF
KMMH 201120Z 2012/2112 VRB03KT P6SM SCT120
     FM202000 11009KT P6SM VCTS SCT080CB BKN120
     FM210200 27010KT P6SM SCT100=

USA.gov is the U.S. government's official web portal to all federal, state and local government web resources and services.